Aérodrome :
LOGIN :

S'inscrire | Disclaimer

   EN    FR    IT 

 










Légende :    VFR   VFR Marginal   IFR   IFR Intensif   IFR Très Intensif
Visi : 
Plafond : 
>= 8 km
>= 3000ft
5 à 8 km
1000 à 3000 ft
1500m à 5 km
500 à 1000 ft
800 à 1500m
200 à 500 ft
< 800m
< 200 ft
Symboles :   Orages  Brouillard  Fortes neiges  Fortes précipitations  Vent > 20 kt
SIGMETs :   Divers  Orages  Givrage  Turbulence  Onde Orograph.  Cendres Volcan.






- Altitude de l'aérodrome : 341 ft


EPMO - Modlin

DERNIER METAR :
  • 061800Z 21008KT 170V230 CAVOK 21/11 Q1007

METARs EXPIRÉS :
  • 061730Z 19007KT 150V220 9999 -RA NSC 22/11 Q1006
  • 061700Z 19006KT 160V220 CAVOK 22/11 Q1006
  • 061630Z 20008KT 170V230 CAVOK 22/10 Q1006
  • 061600Z 21009KT 170V240 CAVOK 23/11 Q1006
  • 061530Z 21007KT 170V240 9999 -SHRA FEW055CB 22/11 Q1006

TAF TAF EPMO
Valide du 06 à 18h jusqu'au 07 à 18h UTC


061730Z 0618/0718 VRB05KT 9999 SCT045
PROB40
TEMPO 0618/0621 BKN035CB
PROB40 0622/0704 4000 BR
TEMPO 0710/0718 BKN030CB
PROB40 0714/0718 4000 SHRA BKN007 BKN020CB



MET'MAP, la Météo Aéronautique d'un coup d'oeil ! - Copyright ORBIFLY Décembre 2007 - Disclaimer

ORBIFLY MET'MAP TEAM :

Programmation & Développement : Alexandra Zaïnal
Sur une idée originale de : Baudouin d'Aumeries
Assistance à la programmation : Marc-Olivier Méhu
Soutien technique & logistique : Manuel Goepfert

Contact : metmap@orbifly.com




SOURCES & CREDITS :

   NOAA